Time;durP1;ratioP1;P1;durP2;ratioP2;P2;SDS_P1;SDS_P2;PMS_P1;PMS_P2;Temp;Humidity;BMP_temperature;BMP_pressure;BME280_temperature;BME280_humidity;BME280_pressure;Samples;Min_cycle;Max_cycle;Signal;HPM_P1;HPM_P2
2022/08/17 00:00:21;;;;;;;29.83;26.98;;;;;;;21.91;65.19;100869.19;4899816;29;19919;-79
2022/08/17 00:02:57;;;;;;;29.88;26.80;;;;;;;21.94;64.34;100866.94;4912443;29;20508;-78
2022/08/17 00:05:23;;;;;;;30.67;27.52;;;;;;;21.92;65.47;100866.28;4907803;29;20028;-78
2022/08/17 00:07:48;;;;;;;30.15;27.30;;;;;;;21.94;64.89;100864.22;4906773;29;20367;-77
2022/08/17 00:10:14;;;;;;;30.53;27.70;;;;;;;21.89;65.40;100857.72;4901252;29;20477;-77
2022/08/17 00:12:40;;;;;;;30.70;27.65;;;;;;;21.89;65.44;100855.03;4914591;29;20280;-78
2022/08/17 00:15:07;;;;;;;31.70;27.63;;;;;;;21.87;65.78;100843.56;4898277;29;20033;-78
2022/08/17 00:17:32;;;;;;;30.85;27.80;;;;;;;21.85;66.03;100841.06;4899791;29;20092;-78
2022/08/17 00:19:59;;;;;;;31.60;28.67;;;;;;;21.80;65.65;100841.63;4907913;29;20028;-77
2022/08/17 00:22:24;;;;;;;32.42;29.10;;;;;;;21.78;65.89;100835.56;4906441;29;20291;-77
2022/08/17 00:24:49;;;;;;;36.60;29.88;;;;;;;21.78;65.93;100824.75;4912754;29;20032;-78
2022/08/17 00:27:15;;;;;;;30.65;27.83;;;;;;;21.79;66.12;100828.28;4901608;29;20033;-78
2022/08/17 00:29:41;;;;;;;31.35;27.85;;;;;;;21.79;65.92;100831.00;4919400;29;20031;-78
2022/08/17 00:32:06;;;;;;;33.53;30.25;;;;;;;21.73;66.90;100831.75;4906873;29;20059;-78
2022/08/17 00:34:31;;;;;;;34.10;30.85;;;;;;;21.71;67.07;100831.94;4901511;29;20398;-77
2022/08/17 00:36:56;;;;;;;37.87;30.37;;;;;;;21.70;67.05;100832.13;4913428;29;20085;-78
2022/08/17 00:39:22;;;;;;;33.53;30.30;;;;;;;21.71;66.66;100823.00;4906645;29;20292;-78
2022/08/17 00:41:47;;;;;;;34.47;30.83;;;;;;;21.70;66.90;100821.31;4906253;29;20778;-78
2022/08/17 00:44:12;;;;;;;36.65;32.75;;;;;;;21.68;67.46;100824.22;4912195;29;20287;-77
2022/08/17 00:46:40;;;;;;;34.47;31.33;;;;;;;21.65;67.19;100821.91;4906564;29;20039;-77
2022/08/17 00:49:08;;;;;;;35.33;31.93;;;;;;;21.69;67.60;100825.91;4902318;29;20288;-78
2022/08/17 00:51:52;;;;;;;36.92;33.15;;;;;;;21.69;66.42;100819.66;5020080;23;20089;-80
2022/08/17 00:54:33;;;;;;;35.58;32.20;;;;;;;21.67;66.45;100824.44;4918455;29;20059;-80
2022/08/17 00:57:07;;;;;;;36.42;32.92;;;;;;;21.62;67.78;100827.69;4920639;29;20024;-80
2022/08/17 00:59:37;;;;;;;36.25;32.65;;;;;;;21.59;67.46;100812.69;4919769;29;20036;-79
2022/08/17 01:02:03;;;;;;;35.05;31.58;;;;;;;21.59;67.88;100825.38;4919589;29;20043;-80
2022/08/17 01:04:30;;;;;;;35.33;31.92;;;;;;;21.59;68.01;100819.97;4914822;29;20024;-80
2022/08/17 01:06:58;;;;;;;35.10;31.65;;;;;;;21.57;67.83;100817.44;4919582;29;20092;-80
2022/08/17 01:09:24;;;;;;;35.30;31.88;;;;;;;21.60;67.82;100825.19;4925682;29;20036;-81
2022/08/17 01:11:50;;;;;;;37.80;33.17;;;;;;;21.58;68.00;100827.25;4931242;29;20036;-81
2022/08/17 01:14:20;;;;;;;35.22;31.92;;;;;;;21.54;68.00;100814.31;4922727;29;20036;-81
2022/08/17 01:16:46;;;;;;;36.85;33.22;;;;;;;21.54;67.89;100819.72;4919498;29;20031;-81
2022/08/17 01:19:19;;;;;;;35.22;32.03;;;;;;;21.54;67.70;100820.53;4919101;29;20444;-81
2022/08/17 01:22:08;;;;;;;36.25;32.88;;;;;;;21.54;68.06;100808.91;4918426;29;20024;-81
2022/08/17 01:24:40;;;;;;;36.45;32.83;;;;;;;21.52;67.86;100805.56;4917853;29;20048;-81
2022/08/17 01:27:08;;;;;;;34.60;31.30;;;;;;;21.53;68.12;100805.38;4922392;29;20032;-78
2022/08/17 01:29:34;;;;;;;36.20;32.90;;;;;;;21.55;67.51;100805.16;4913422;29;20084;-80
2022/08/17 01:32:02;;;;;;;34.42;31.20;;;;;;;21.56;68.21;100804.13;4919234;29;20430;-81
2022/08/17 01:34:28;;;;;;;33.50;30.30;;;;;;;21.58;67.81;100799.38;4918944;29;20080;-80
2022/08/17 01:36:53;;;;;;;33.15;29.95;;;;;;;21.56;67.76;100796.03;4918500;29;20028;-79
2022/08/17 01:39:22;;;;;;;34.00;30.80;;;;;;;21.54;67.87;100796.22;4919008;29;20039;-80
2022/08/17 01:41:52;;;;;;;33.88;30.63;;;;;;;21.52;67.63;100798.28;4922354;29;20034;-80
2022/08/17 01:44:19;;;;;;;32.55;29.15;;;;;;;21.52;67.32;100792.88;4922453;29;20425;-80
2022/08/17 01:46:47;;;;;;;31.65;28.50;;;;;;;21.51;67.23;100793.88;4918674;29;20024;-79
2022/08/17 01:49:12;;;;;;;33.55;30.40;;;;;;;21.52;68.02;100786.63;4913555;29;20179;-79
2022/08/17 01:51:38;;;;;;;32.70;29.27;;;;;;;21.49;67.85;100793.25;4924728;29;20106;-80
2022/08/17 01:54:08;;;;;;;32.45;29.35;;;;;;;21.50;67.77;100783.25;4923252;29;20295;-80
2022/08/17 01:56:37;;;;;;;32.30;28.80;;;;;;;21.49;67.44;100784.31;4918995;29;20088;-80
2022/08/17 01:59:03;;;;;;;32.92;29.98;;;;;;;21.44;68.52;100795.66;4919065;29;20056;-80
2022/08/17 02:01:31;;;;;;;32.70;29.40;;;;;;;21.43;68.23;100788.56;4918833;29;20055;-80
2022/08/17 02:03:57;;;;;;;31.88;28.67;;;;;;;21.39;68.43;100790.81;4917586;29;20473;-81
2022/08/17 02:06:22;;;;;;;32.58;29.30;;;;;;;21.40;68.37;100775.44;4910803;29;20058;-81
2022/08/17 02:08:48;;;;;;;32.83;29.30;;;;;;;21.41;67.98;100783.34;4918922;29;20438;-81
2022/08/17 02:11:18;;;;;;;30.55;27.52;;;;;;;21.40;68.22;100781.69;4912093;29;20526;-81
2022/08/17 02:13:45;;;;;;;31.13;27.95;;;;;;;21.41;68.20;100779.81;4918193;29;20115;-81
2022/08/17 02:16:10;;;;;;;29.83;27.02;;;;;;;21.40;67.76;100770.88;4910947;29;20068;-79
2022/08/17 02:18:36;;;;;;;31.42;28.23;;;;;;;21.40;68.01;100779.00;4936864;29;20477;-80
2022/08/17 02:21:02;;;;;;;30.70;27.77;;;;;;;21.39;68.08;100780.00;4914937;29;20067;-80
2022/08/17 02:23:30;;;;;;;32.65;28.75;;;;;;;21.39;68.66;100780.00;4918294;29;20032;-81
2022/08/17 02:25:58;;;;;;;31.65;28.58;;;;;;;21.34;68.47;100776.22;4918229;29;20499;-79
2022/08/17 02:28:23;;;;;;;32.40;29.33;;;;;;;21.35;68.50;100784.13;4913041;29;20028;-80
2022/08/17 02:30:48;;;;;;;32.90;29.67;;;;;;;21.31;68.65;100774.72;4926163;29;20491;-81
2022/08/17 02:33:14;;;;;;;34.60;31.17;;;;;;;21.25;69.17;100778.19;4911694;29;20328;-81
2022/08/17 02:35:39;;;;;;;36.15;32.38;;;;;;;21.22;69.20;100774.00;4917765;29;20115;-80
2022/08/17 02:38:06;;;;;;;36.37;32.50;;;;;;;21.19;69.03;100773.53;4911805;29;20474;-81
2022/08/17 02:40:33;;;;;;;35.05;31.77;;;;;;;21.17;68.87;100767.50;4912358;29;20657;-80
2022/08/17 02:42:58;;;;;;;36.70;33.17;;;;;;;21.14;69.61;100771.41;4925205;29;20543;-80
2022/08/17 02:45:24;;;;;;;36.97;33.28;;;;;;;21.11;69.88;100766.38;4935021;29;20062;-80
2022/08/17 02:47:51;;;;;;;37.70;33.92;;;;;;;21.09;69.85;100764.91;4912887;29;20039;-80
2022/08/17 02:50:19;;;;;;;37.10;33.75;;;;;;;21.03;70.30;100767.34;4928854;29;20050;-79
2022/08/17 02:52:49;;;;;;;39.15;35.40;;;;;;;21.01;70.32;100768.53;4898922;29;20057;-80
2022/08/17 02:55:19;;;;;;;36.78;33.28;;;;;;;20.97;69.73;100762.69;4925801;29;20032;-80
2022/08/17 02:57:45;;;;;;;37.03;33.67;;;;;;;20.96;70.56;100757.47;4917600;29;20541;-81
2022/08/17 03:00:15;;;;;;;38.25;34.35;;;;;;;20.91;70.38;100749.09;4916207;29;20040;-80
2022/08/17 03:02:43;;;;;;;39.03;35.17;;;;;;;20.85;70.85;100754.22;4918202;29;20028;-81
2022/08/17 03:05:11;;;;;;;40.10;36.05;;;;;;;20.80;71.73;100751.25;4930040;29;20107;-80
2022/08/17 03:07:37;;;;;;;38.80;35.08;;;;;;;20.83;70.54;100748.19;4917405;29;20028;-81
2022/08/17 03:10:05;;;;;;;39.45;35.33;;;;;;;20.79;71.13;100744.16;4916144;29;20029;-80
2022/08/17 03:12:32;;;;;;;37.38;33.78;;;;;;;20.80;71.63;100743.16;4917371;29;20163;-81
2022/08/17 03:15:02;;;;;;;37.42;33.78;;;;;;;20.79;71.44;100749.56;4917353;29;20074;-80
2022/08/17 03:17:27;;;;;;;35.63;32.17;;;;;;;20.78;71.04;100742.47;4909352;29;20029;-81
2022/08/17 03:19:52;;;;;;;37.80;34.03;;;;;;;20.74;71.75;100752.00;4919465;29;20608;-80
2022/08/17 03:22:18;;;;;;;36.97;33.10;;;;;;;20.74;71.95;100743.06;4925414;29;20175;-80
2022/08/17 03:24:43;;;;;;;37.43;33.77;;;;;;;20.71;71.65;100744.25;4916089;29;20284;-81
2022/08/17 03:27:08;;;;;;;38.03;34.33;;;;;;;20.61;72.68;100752.59;4917246;29;20328;-81
2022/08/17 03:29:33;;;;;;;38.27;34.57;;;;;;;20.63;72.00;100745.22;4917098;29;20272;-82
2022/08/17 03:32:00;;;;;;;36.50;33.13;;;;;;;20.60;72.16;100759.03;4916643;29;20300;-81
2022/08/17 03:34:26;;;;;;;39.28;35.80;;;;;;;20.58;72.03;100758.38;4927505;29;20283;-81
2022/08/17 03:36:51;;;;;;;38.30;34.20;;;;;;;20.57;72.52;100753.16;4911256;29;20024;-81
2022/08/17 03:39:16;;;;;;;38.33;34.33;;;;;;;20.50;72.59;100753.91;4912975;29;20036;-81
2022/08/17 03:41:42;;;;;;;35.55;32.15;;;;;;;20.53;72.82;100760.78;4908485;29;20453;-80
2022/08/17 03:44:07;;;;;;;38.47;34.50;;;;;;;20.47;73.17;100758.84;4914310;29;20891;-81
2022/08/17 03:57:30;;;;;;;38.72;34.70;;;;;;;20.38;73.31;100773.44;4905490;29;20508;-81
2022/08/17 03:59:56;;;;;;;37.47;33.83;;;;;;;20.42;73.18;100777.44;4914705;29;20076;-81
2022/08/17 04:02:30;;;;;;;38.00;34.15;;;;;;;20.41;73.13;100783.84;4916967;29;20632;-81
2022/08/17 04:04:56;;;;;;;37.55;33.65;;;;;;;20.33;73.93;100788.31;4929038;29;20500;-81
2022/08/17 04:07:24;;;;;;;39.97;35.90;;;;;;;20.27;73.84;100804.38;4911803;29;20032;-81
2022/08/17 04:09:50;;;;;;;39.97;36.17;;;;;;;20.27;73.91;100812.47;4913582;29;20035;-81
2022/08/17 04:12:17;;;;;;;37.72;34.13;;;;;;;20.22;74.22;100823.81;4916887;29;20397;-80
2022/08/17 04:14:43;;;;;;;39.67;35.63;;;;;;;20.20;74.79;100823.16;4916829;29;20032;-80
2022/08/17 04:17:08;;;;;;;39.20;35.42;;;;;;;20.19;75.08;100817.94;4924966;29;20027;-80
2022/08/17 04:19:33;;;;;;;40.50;36.83;;;;;;;20.19;76.35;100815.25;4920475;29;20036;-80
2022/08/17 04:21:59;;;;;;;39.40;35.75;;;;;;;20.19;75.94;100812.56;4912476;29;20052;-81
2022/08/17 04:24:25;;;;;;;39.83;35.55;;;;;;;20.19;76.40;100815.25;4911966;29;20038;-81
2022/08/17 04:26:50;;;;;;;39.40;35.60;;;;;;;20.17;76.49;100822.66;4912026;29;20029;-81
2022/08/17 04:29:16;;;;;;;38.25;34.65;;;;;;;20.15;76.38;100826.41;4915098;29;20033;-81
2022/08/17 04:31:42;;;;;;;38.90;35.10;;;;;;;20.14;77.22;100831.97;4915105;29;20119;-81
2022/08/17 04:34:08;;;;;;;40.08;35.95;;;;;;;20.16;77.15;100835.31;4925225;29;20748;-81
2022/08/17 04:36:34;;;;;;;37.15;33.42;;;;;;;20.14;77.46;100846.28;4917551;29;20115;-81
2022/08/17 04:38:59;;;;;;;36.28;32.92;;;;;;;20.17;77.76;100861.28;4915069;29;20111;-81
2022/08/17 04:44:10;;;;;;;38.05;34.15;;;;;;;20.21;77.36;100857.19;4921940;29;20031;-81
2022/08/17 04:46:36;;;;;;;35.95;32.33;;;;;;;20.22;77.12;100875.06;4939014;29;20111;-81
2022/08/17 04:49:05;;;;;;;38.00;34.28;;;;;;;20.22;77.51;100856.16;4933462;29;20123;-81
2022/08/17 04:51:34;;;;;;;39.15;35.30;;;;;;;20.22;77.68;100874.22;4930298;29;20047;-81
2022/08/17 04:54:04;;;;;;;37.80;34.05;;;;;;;20.26;77.18;100851.25;4921651;29;20044;-81
2022/08/17 04:56:30;;;;;;;37.80;34.22;;;;;;;20.23;77.97;100857.00;4912017;29;20398;-81
2022/08/17 04:59:00;;;;;;;36.30;32.50;;;;;;;20.23;78.27;100859.69;4932139;29;20107;-81
2022/08/17 05:01:28;;;;;;;35.17;31.80;;;;;;;20.27;77.81;100850.25;4910898;29;20099;-81
2022/08/17 05:03:59;;;;;;;37.40;33.63;;;;;;;20.26;76.54;100853.94;4925957;29;20148;-81
2022/08/17 05:06:26;;;;;;;35.92;32.40;;;;;;;20.28;77.29;100855.47;4914205;29;20108;-81
2022/08/17 05:08:52;;;;;;;35.78;32.35;;;;;;;20.26;77.70;100848.56;4920283;29;20027;-81
2022/08/17 05:11:17;;;;;;;38.58;33.83;;;;;;;20.26;78.48;100841.28;4933236;29;20032;-81
2022/08/17 05:13:43;;;;;;;34.97;31.75;;;;;;;20.28;78.11;100841.13;4927908;29;20044;-80
2022/08/17 05:16:09;;;;;;;33.95;30.52;;;;;;;20.29;78.39;100830.16;4932376;29;20043;-80
2022/08/17 05:18:37;;;;;;;34.47;31.13;;;;;;;20.32;78.16;100828.97;4932446;29;20062;-81
2022/08/17 05:21:04;;;;;;;33.85;30.75;;;;;;;20.28;78.49;100844.66;4918663;29;20035;-80
2022/08/17 05:23:29;;;;;;;35.90;31.60;;;;;;;20.32;78.75;100847.84;4918262;29;20496;-81
2022/08/17 05:25:55;;;;;;;32.63;29.25;;;;;;;20.38;78.53;100851.66;4933295;29;20031;-81
2022/08/17 05:28:22;;;;;;;33.55;30.33;;;;;;;20.39;78.10;100842.56;4931185;29;20043;-81
2022/08/17 05:30:48;;;;;;;34.28;30.75;;;;;;;20.39;78.69;100842.56;4931075;29;20035;-81
2022/08/17 05:33:16;;;;;;;34.03;30.48;;;;;;;20.42;78.30;100840.31;4926540;29;20027;-81
2022/08/17 05:35:45;;;;;;;32.88;29.50;;;;;;;20.46;78.53;100832.69;4924769;29;20050;-81
2022/08/17 05:38:11;;;;;;;32.65;29.52;;;;;;;20.46;79.05;100841.63;4919691;29;20108;-81
2022/08/17 05:40:38;;;;;;;33.60;30.23;;;;;;;20.50;79.16;100839.38;4934056;29;20035;-81
2022/08/17 05:43:07;;;;;;;31.17;28.10;;;;;;;20.55;78.77;100841.53;4930820;29;20043;-81
2022/08/17 05:45:33;;;;;;;32.70;29.70;;;;;;;20.59;79.04;100840.19;4920740;29;20499;-81
2022/08/17 05:47:58;;;;;;;31.77;28.80;;;;;;;20.63;78.92;100838.81;4926509;29;20034;-81
2022/08/17 05:50:30;;;;;;;30.42;27.45;;;;;;;20.70;77.68;100835.19;4925933;29;20111;-81
2022/08/17 05:53:09;;;;;;;31.02;27.85;;;;;;;20.72;78.43;100835.00;4929341;29;20069;-81
2022/08/17 05:55:41;;;;;;;31.65;28.63;;;;;;;20.78;77.80;100842.34;4923534;29;20162;-81
2022/08/17 05:58:31;;;;;;;30.73;27.63;;;;;;;20.86;77.75;100841.44;4925601;29;20151;-82
2022/08/17 06:01:12;;;;;;;30.33;27.52;;;;;;;20.89;77.16;100844.59;4915021;29;20036;-82
2022/08/17 06:04:10;;;;;;;29.27;26.20;;;;;;;21.02;76.33;100856.63;4919947;29;20035;-81
2022/08/17 06:06:40;;;;;;;28.58;25.88;;;;;;;21.05;76.75;100850.88;4922900;29;20058;-81
2022/08/17 06:09:18;;;;;;;28.80;25.83;;;;;;;21.12;76.20;100851.78;4918412;29;20477;-82
2022/08/17 06:11:55;;;;;;;28.83;25.92;;;;;;;21.14;76.50;100849.72;4913731;29;20489;-79
2022/08/17 06:14:33;;;;;;;28.13;25.33;;;;;;;21.21;75.88;100852.50;4928421;29;20023;-82
2022/08/17 06:17:11;;;;;;;27.60;24.33;;;;;;;21.26;75.85;100853.63;4921212;29;20035;-82
2022/08/17 06:19:50;;;;;;;26.95;23.70;;;;;;;21.32;75.04;100843.13;4918530;29;20084;-83
2022/08/17 06:22:21;;;;;;;28.90;23.58;;;;;;;21.34;75.32;100849.97;4920679;29;20040;-82
2022/08/17 06:24:52;;;;;;;24.25;21.85;;;;;;;21.42;74.77;100859.88;4922295;29;20100;-82
2022/08/17 06:27:42;;;;;;;27.05;21.58;;;;;;;21.45;75.27;100864.91;4922925;29;20043;-81
2022/08/17 06:30:19;;;;;;;23.65;21.25;;;;;;;21.49;74.83;100868.09;4911961;29;20500;-82
2022/08/17 06:32:47;;;;;;;22.42;20.25;;;;;;;21.44;74.68;100874.84;4922154;29;20056;-82
2022/08/17 06:35:18;;;;;;;22.42;20.08;;;;;;;21.45;74.50;100889.22;4921996;29;20096;-82
2022/08/17 06:37:49;;;;;;;22.40;19.52;;;;;;;21.51;73.87;100893.03;4917864;29;20060;-83
2022/08/17 06:40:44;;;;;;;21.45;19.27;;;;;;;21.52;73.92;100887.44;4920045;29;20047;-83
2022/08/17 06:43:18;;;;;;;20.75;18.58;;;;;;;21.52;74.16;100878.53;4916612;29;20491;-83
2022/08/17 06:45:49;;;;;;;21.20;19.08;;;;;;;21.51;72.98;100885.78;4917168;29;20091;-82
2022/08/17 06:48:23;;;;;;;20.42;18.13;;;;;;;21.50;72.69;100892.22;4910487;29;20052;-84
2022/08/17 06:51:04;;;;;;;18.60;16.80;;;;;;;21.49;72.70;100885.13;4905695;29;20525;-83
2022/08/17 06:53:54;;;;;;;19.02;17.13;;;;;;;21.52;72.25;100898.25;4917904;29;20423;-83
2022/08/17 06:56:31;;;;;;;19.80;17.70;;;;;;;21.48;72.14;100904.22;4928799;29;20036;-82
2022/08/17 06:58:58;;;;;;;19.25;16.67;;;;;;;21.49;71.85;100901.34;4901497;29;20048;-83
2022/08/17 07:01:30;;;;;;;21.88;15.98;;;;;;;21.50;72.52;100903.03;4911435;29;20035;-84
2022/08/17 07:04:09;;;;;;;17.65;15.85;;;;;;;21.54;72.04;100901.59;4906792;29;20510;-82
2022/08/17 07:06:46;;;;;;;17.77;15.80;;;;;;;21.51;72.54;100901.97;4925700;29;20392;-82
2022/08/17 07:09:22;;;;;;;20.58;16.15;;;;;;;21.51;72.35;100904.69;4919008;29;20074;-81
2022/08/17 07:12:14;;;;;;;18.40;15.45;;;;;;;21.57;72.17;100905.81;4915515;29;20036;-81
2022/08/17 07:14:55;;;;;;;18.00;15.35;;;;;;;21.62;71.79;100908.78;4916457;29;20078;-79
2022/08/17 07:17:23;;;;;;;22.30;16.35;;;;;;;21.65;71.93;100915.66;4916420;29;20042;-81
2022/08/17 07:19:53;;;;;;;18.45;14.82;;;;;;;21.71;71.82;100918.44;4916929;29;20027;-82
2022/08/17 07:22:41;;;;;;;16.65;15.10;;;;;;;21.69;72.14;100911.56;4909543;29;20032;-83
2022/08/17 07:25:10;;;;;;;17.27;15.35;;;;;;;21.73;71.92;100913.72;4898393;29;20041;-83
2022/08/17 07:27:51;;;;;;;17.38;15.50;;;;;;;21.77;72.34;100906.06;4914123;29;20469;-83
2022/08/17 07:30:23;;;;;;;17.13;15.38;;;;;;;21.76;71.67;100909.78;4917347;29;20358;-84
2022/08/17 07:33:00;;;;;;;16.83;15.13;;;;;;;21.81;71.76;100921.69;4917494;29;20036;-82
2022/08/17 07:35:28;;;;;;;18.98;15.90;;;;;;;21.77;71.75;100919.56;4917015;29;20386;-81
2022/08/17 07:38:15;;;;;;;16.80;15.07;;;;;;;21.86;71.39;100929.22;4920305;29;20031;-80
2022/08/17 07:41:03;;;;;;;17.25;15.55;;;;;;;21.83;71.52;100926.06;4910811;29;20037;-81
2022/08/17 07:43:41;;;;;;;16.02;14.55;;;;;;;21.88;71.67;100934.44;4907844;29;20465;-81
2022/08/17 07:49:22;;;;;;;17.80;15.15;;;;;;;21.93;71.16;100932.88;4921153;29;20039;-82
2022/08/17 07:51:49;;;;;;;16.90;15.27;;;;;;;22.00;71.58;100932.94;4928051;29;20082;-83
2022/08/17 07:54:14;;;;;;;16.98;14.73;;;;;;;22.03;71.31;100934.41;4913828;29;20430;-83
2022/08/17 07:56:49;;;;;;;16.83;15.07;;;;;;;22.06;70.78;100936.75;4916259;29;20059;-84
2022/08/17 07:59:27;;;;;;;16.17;14.20;;;;;;;22.11;70.85;100937.00;4910493;29;20525;-84
2022/08/17 08:01:56;;;;;;;19.33;16.00;;;;;;;22.15;70.52;100925.63;4914286;29;20032;-82
2022/08/17 08:04:41;;;;;;;16.70;14.95;;;;;;;22.27;70.64;100933.22;4916722;29;20556;-83
2022/08/17 08:07:30;;;;;;;15.90;14.35;;;;;;;22.35;70.34;100935.84;4914012;29;20028;-83
2022/08/17 08:10:06;;;;;;;17.25;15.40;;;;;;;22.45;70.33;100940.91;4916488;29;20107;-84
2022/08/17 08:12:43;;;;;;;15.82;14.43;;;;;;;22.51;69.59;100940.16;4918308;29;20036;-82
2022/08/17 08:15:11;;;;;;;19.67;15.55;;;;;;;22.53;69.93;100940.78;4930814;29;20098;-81
2022/08/17 08:17:54;;;;;;;18.17;16.00;;;;;;;22.57;69.28;100936.66;4919777;29;20024;-81
2022/08/17 08:20:48;;;;;;;17.90;15.80;;;;;;;22.62;69.62;100934.22;4931446;29;20047;-82
2022/08/17 08:23:43;;;;;;;19.90;15.98;;;;;;;22.72;69.27;100934.72;4918557;29;20379;-83
2022/08/17 08:26:22;;;;;;;17.75;15.98;;;;;;;22.76;68.78;100934.31;4928150;29;20027;-82
2022/08/17 08:29:09;;;;;;;18.42;16.58;;;;;;;22.80;68.60;100927.47;4936607;29;20020;-82
2022/08/17 08:31:55;;;;;;;18.20;15.75;;;;;;;22.79;68.50;100925.81;4911424;29;20016;-82
2022/08/17 08:34:29;;;;;;;17.42;15.73;;;;;;;22.77;68.96;100917.88;4932027;29;20401;-83
2022/08/17 08:37:22;;;;;;;20.55;16.35;;;;;;;22.87;68.65;100917.56;4922030;29;20038;-84
2022/08/17 08:40:18;;;;;;;18.75;16.95;;;;;;;22.84;68.01;100924.19;4919788;29;20508;-81
2022/08/17 08:42:52;;;;;;;19.30;17.25;;;;;;;22.85;67.91;100928.56;4920217;29;20039;-83
2022/08/17 08:45:39;;;;;;;17.30;15.50;;;;;;;22.95;67.63;100928.25;4920347;29;20036;-81
2022/08/17 08:48:25;;;;;;;18.50;16.55;;;;;;;23.02;67.78;100941.81;4928540;29;20036;-83
2022/08/17 08:51:07;;;;;;;17.95;16.05;;;;;;;23.06;66.89;100943.09;4925809;29;20040;-83
2022/08/17 08:53:48;;;;;;;17.55;15.32;;;;;;;23.19;67.46;100961.34;4919119;29;20527;-82
2022/08/17 08:56:18;;;;;;;19.38;16.90;;;;;;;23.24;67.03;100972.44;4920636;29;20075;-83
2022/08/17 08:59:14;;;;;;;21.25;17.33;;;;;;;23.34;66.35;100964.78;4920710;29;20111;-83
2022/08/17 09:01:59;;;;;;;19.05;17.13;;;;;;;23.44;65.91;100967.97;4921781;29;20088;-83
2022/08/17 09:04:40;;;;;;;20.02;17.67;;;;;;;23.46;64.96;100970.47;4928191;29;20056;-83
2022/08/17 09:07:25;;;;;;;19.70;17.40;;;;;;;23.48;66.00;100967.56;4926701;29;20094;-83
2022/08/17 09:09:56;;;;;;;18.30;16.27;;;;;;;23.53;65.32;100955.09;4916702;29;20036;-82
2022/08/17 09:12:28;;;;;;;19.08;17.10;;;;;;;23.50;65.34;100957.34;4918912;29;20043;-81
2022/08/17 09:15:04;;;;;;;19.10;16.38;;;;;;;23.52;65.70;100958.00;4927425;29;20038;-82
2022/08/17 09:17:41;;;;;;;20.88;16.83;;;;;;;23.57;65.33;100961.78;4927335;29;20035;-81
2022/08/17 09:20:27;;;;;;;18.65;16.83;;;;;;;23.59;66.00;100978.69;4928307;29;20036;-80
2022/08/17 09:23:09;;;;;;;16.73;15.02;;;;;;;23.57;65.63;100969.09;4913190;29;20037;-81
2022/08/17 09:25:50;;;;;;;20.58;15.85;;;;;;;23.58;65.98;100966.19;4917159;29;20410;-81
2022/08/17 09:28:22;;;;;;;17.38;15.68;;;;;;;23.50;65.87;100965.50;4922236;29;20063;-81
2022/08/17 09:31:01;;;;;;;18.60;16.60;;;;;;;23.57;65.71;100977.22;4921480;29;20083;-81
2022/08/17 09:33:27;;;;;;;16.73;14.95;;;;;;;23.53;65.83;100982.22;4937808;29;20058;-80
2022/08/17 09:36:14;;;;;;;16.52;14.82;;;;;;;23.63;66.36;100992.66;4918346;29;20055;-80
2022/08/17 09:38:56;;;;;;;15.70;14.20;;;;;;;23.59;67.06;101000.38;4915942;29;20105;-80
2022/08/17 09:41:48;;;;;;;19.02;16.40;;;;;;;23.60;66.78;101020.22;4929381;29;20435;-81
2022/08/17 09:44:31;;;;;;;17.85;16.02;;;;;;;23.61;65.40;101032.72;4913323;29;20127;-82
2022/08/17 09:47:09;;;;;;;18.00;16.27;;;;;;;23.58;67.01;101038.53;4915082;29;20499;-81
2022/08/17 09:49:44;;;;;;;19.95;16.92;;;;;;;23.56;66.49;101046.84;4915651;29;20071;-82
2022/08/17 09:52:18;;;;;;;21.88;18.17;;;;;;;23.51;67.92;101062.06;4916340;29;20480;-83
2022/08/17 09:54:45;;;;;;;19.30;17.35;;;;;;;23.48;67.07;101062.44;4912333;29;20039;-82
2022/08/17 09:57:42;;;;;;;19.00;17.10;;;;;;;23.39;68.69;101062.59;4914509;29;20493;-84
2022/08/17 10:00:26;;;;;;;18.90;16.60;;;;;;;23.34;69.06;101054.22;4911526;29;20378;-83
2022/08/17 10:03:03;;;;;;;19.63;17.02;;;;;;;23.27;69.89;101035.19;4914956;29;20119;-85
2022/08/17 10:05:45;;;;;;;23.50;18.48;;;;;;;23.21;72.15;101029.72;4908497;29;20032;-84
2022/08/17 10:08:22;;;;;;;21.58;17.92;;;;;;;23.13;73.69;101022.56;4909018;29;20039;-86
2022/08/17 10:11:09;;;;;;;21.90;19.52;;;;;;;23.06;73.57;101030.63;4913407;29;20041;-84
2022/08/17 10:13:44;;;;;;;20.27;18.13;;;;;;;22.97;72.86;101037.22;4913182;29;20040;-84
2022/08/17 10:16:32;;;;;;;21.33;19.02;;;;;;;22.95;73.67;101033.00;4927684;29;20114;-85
2022/08/17 10:19:09;;;;;;;21.83;19.52;;;;;;;22.83;76.20;101030.00;4913835;29;20637;-84
2022/08/17 10:27:16;;;;;;;28.15;21.48;;;;;;;22.70;76.86;101020.72;4909206;29;20484;-83
2022/08/17 10:30:02;;;;;;;27.80;22.67;;;;;;;22.62;78.10;101026.25;4919312;29;20044;-83
2022/08/17 10:32:38;;;;;;;27.02;20.77;;;;;;;22.57;77.13;101026.00;4918977;29;20035;-83
2022/08/17 10:35:18;;;;;;;25.35;22.38;;;;;;;22.57;76.23;101028.72;4918472;29;20110;-83
2022/08/17 10:38:24;;;;;;;23.92;21.42;;;;;;;22.55;75.79;101033.47;4917788;29;20036;-83
2022/08/17 10:41:04;;;;;;;24.13;21.58;;;;;;;22.52;77.82;101028.44;4916998;29;20032;-82
2022/08/17 10:43:35;;;;;;;24.25;21.77;;;;;;;22.42;78.89;101017.94;4916645;29;20119;-83
2022/08/17 10:46:23;;;;;;;24.65;22.10;;;;;;;22.45;77.57;101012.13;4918823;29;20548;-85
2022/08/17 10:49:16;;;;;;;26.38;23.80;;;;;;;22.40;78.78;100998.34;4911871;29;20573;-83
2022/08/17 10:51:44;;;;;;;25.13;22.67;;;;;;;22.22;81.27;100998.72;4902143;29;20467;-83
2022/08/17 10:54:29;;;;;;;25.30;22.77;;;;;;;22.30;78.55;100992.38;4912500;29;20036;-83
2022/08/17 10:56:56;;;;;;;24.45;21.95;;;;;;;22.18;80.53;100983.91;4918646;29;20024;-83
2022/08/17 10:59:42;;;;;;;25.02;22.80;;;;;;;22.18;79.04;100981.19;4917900;29;20075;-84
2022/08/17 11:02:26;;;;;;;23.27;21.05;;;;;;;22.04;80.35;100982.09;4901884;29;20048;-84
2022/08/17 11:05:21;;;;;;;25.92;23.05;;;;;;;22.00;81.37;100987.03;4919363;29;20048;-84
2022/08/17 11:08:06;;;;;;;25.25;22.95;;;;;;;21.97;81.60;100990.13;4858542;29;20394;-83
2022/08/17 11:10:49;;;;;;;25.42;22.73;;;;;;;21.95;80.59;100998.41;4903235;29;20158;-83
2022/08/17 11:13:43;;;;;;;23.80;21.42;;;;;;;21.94;81.10;100994.03;4912364;29;20048;-83
2022/08/17 11:16:36;;;;;;;25.38;22.50;;;;;;;21.87;81.24;100986.88;4906421;29;20469;-84
2022/08/17 11:19:12;;;;;;;25.38;22.77;;;;;;;21.82;82.33;100992.84;4919026;29;20530;-85
2022/08/17 11:21:55;;;;;;;24.73;22.40;;;;;;;21.74;81.80;100995.66;4923190;29;20135;-84
2022/08/17 11:24:32;;;;;;;25.15;22.75;;;;;;;21.72;81.91;101001.22;4932545;29;20036;-84
2022/08/17 11:27:02;;;;;;;25.05;22.65;;;;;;;21.70;83.05;101003.28;4932913;29;20393;-85
2022/08/17 11:30:09;;;;;;;25.17;22.77;;;;;;;21.79;80.62;101015.66;4920822;29;20047;-84
2022/08/17 11:32:48;;;;;;;24.95;22.45;;;;;;;21.73;81.42;101023.69;4873484;29;20041;-85
2022/08/17 11:35:19;;;;;;;25.13;22.63;;;;;;;21.75;81.71;101037.84;4869518;29;20065;-85
2022/08/17 11:38:07;;;;;;;25.40;22.83;;;;;;;21.70;82.69;101046.56;4910503;29;20048;-86
2022/08/17 11:40:56;;;;;;;26.63;23.40;;;;;;;21.73;82.70;101046.19;4918237;29;20044;-86
2022/08/17 11:43:31;;;;;;;25.23;22.05;;;;;;;21.76;82.75;101048.47;4924649;29;20060;-84
2022/08/17 11:46:14;;;;;;;25.58;23.00;;;;;;;21.73;82.44;101043.47;4939727;29;20036;-83
2022/08/17 11:51:59;;;;;;;24.70;22.17;;;;;;;21.78;82.52;101053.72;4927035;29;20416;-85
2022/08/17 11:54:30;;;;;;;26.35;22.95;;;;;;;21.78;83.77;101053.72;4923035;29;20028;-84
2022/08/17 11:56:58;;;;;;;27.50;22.63;;;;;;;21.75;81.88;101062.19;4919564;29;20704;-84
2022/08/17 11:59:35;;;;;;;24.85;22.35;;;;;;;21.80;82.28;101073.31;4925338;29;20035;-85
2022/08/17 12:02:33;;;;;;;25.10;22.60;;;;;;;21.88;81.18;101077.78;4911439;29;20462;-85